createdAt,value
2023-03-28T00:01:20.337Z,91.80
2023-03-28T00:03:50.062Z,91.98
2023-03-28T00:06:21.012Z,92.06
2023-03-28T00:08:51.399Z,92.25
2023-03-28T00:11:22.593Z,92.13
2023-03-28T00:14:03.653Z,92.02
2023-03-28T00:16:39.382Z,92.12
2023-03-28T00:19:11.813Z,92.41
2023-03-28T00:21:46.018Z,92.25
2023-03-28T00:24:17.455Z,92.10
2023-03-28T00:26:48.565Z,92.14
2023-03-28T00:29:20.081Z,91.94
2023-03-28T00:31:51.490Z,92.01
2023-03-28T00:34:21.170Z,92.14
2023-03-28T00:36:50.699Z,92.09
2023-03-28T00:39:20.449Z,92.11
2023-03-28T00:41:50.901Z,92.31
2023-03-28T00:44:49.533Z,92.50
2023-03-28T00:47:27.763Z,92.45
2023-03-28T00:50:03.122Z,92.31
2023-03-28T00:52:39.502Z,92.76
2023-03-28T00:55:14.865Z,92.97
2023-03-28T00:57:45.382Z,93.10
2023-03-28T01:00:17.882Z,93.42
2023-03-28T01:02:53.045Z,93.45
2023-03-28T01:05:25.901Z,93.83
2023-03-28T01:08:17.644Z,93.59
2023-03-28T01:10:46.943Z,93.61
2023-03-28T01:13:19.379Z,93.58
2023-03-28T01:15:51.709Z,93.63
2023-03-28T01:18:22.902Z,93.65
2023-03-28T01:21:10.783Z,93.45
2023-03-28T01:24:11.707Z,93.88
2023-03-28T01:26:37.216Z,93.92
2023-03-28T01:29:30.456Z,94.10
2023-03-28T01:32:23.691Z,93.85
2023-03-28T01:35:13.008Z,94.02
2023-03-28T01:37:54.732Z,93.92
2023-03-28T01:40:57.339Z,93.99
2023-03-28T01:43:30.122Z,93.96
2023-03-28T01:46:16.895Z,94.07
2023-03-28T01:49:07.866Z,94.42
2023-03-28T01:51:55.475Z,94.85
2023-03-28T01:54:39.933Z,94.68
2023-03-28T01:57:20.236Z,94.59
2023-03-28T01:59:56.230Z,94.55
2023-03-28T02:02:39.415Z,94.51
2023-03-28T02:05:15.598Z,94.22
2023-03-28T02:07:47.082Z,93.91
2023-03-28T02:10:19.577Z,93.70
2023-03-28T02:13:01.671Z,93.75
2023-03-28T02:15:43.701Z,93.56
2023-03-28T02:18:24.078Z,93.37
2023-03-28T02:20:58.583Z,93.37
2023-03-28T02:23:45.626Z,93.30
2023-03-28T02:26:24.303Z,93.40
2023-03-28T02:28:57.210Z,93.37
2023-03-28T02:31:32.916Z,93.51
2023-03-28T02:34:04.383Z,93.60
2023-03-28T02:36:53.250Z,93.94
2023-03-28T02:40:01.328Z,94.26
2023-03-28T02:42:34.000Z,94.19
2023-03-28T02:45:27.116Z,94.33
2023-03-28T02:47:57.703Z,94.17
2023-03-28T02:50:41.435Z,94.41
2023-03-28T02:53:31.741Z,94.35
2023-03-28T02:56:10.420Z,94.62
2023-03-28T02:59:03.884Z,94.50
2023-03-28T03:01:34.215Z,94.56
2023-03-28T03:04:04.342Z,94.43
2023-03-28T03:06:36.058Z,94.28
2023-03-28T03:09:06.051Z,94.36
2023-03-28T03:11:35.394Z,94.71
2023-03-28T03:14:04.802Z,94.63
2023-03-28T03:16:34.818Z,94.85
2023-03-28T03:19:04.410Z,94.83
2023-03-28T03:21:34.132Z,94.88
2023-03-28T03:24:04.422Z,94.90
2023-03-28T03:26:33.822Z,95.08
2023-03-28T03:29:05.176Z,95.16
2023-03-28T03:31:35.184Z,95.08
2023-03-28T03:34:24.324Z,95.02
2023-03-28T03:36:55.427Z,95.20
2023-03-28T03:39:25.131Z,95.18
2023-03-28T03:41:54.629Z,95.13
2023-03-28T03:44:24.439Z,95.37
2023-03-28T03:46:54.154Z,95.55
2023-03-28T03:49:23.787Z,95.66
2023-03-28T03:51:54.064Z,95.73
2023-03-28T03:54:23.978Z,95.95
2023-03-28T03:56:54.375Z,95.70
2023-03-28T03:59:23.911Z,95.75
2023-03-28T04:01:54.221Z,95.91
2023-03-28T04:04:45.303Z,95.91
2023-03-28T04:07:19.236Z,96.01
2023-03-28T04:09:50.423Z,96.38
2023-03-28T04:12:19.774Z,96.62
2023-03-28T04:14:51.073Z,96.63
2023-03-28T04:17:41.781Z,96.66
2023-03-28T04:20:14.027Z,96.70
2023-03-28T04:22:46.394Z,96.94
2023-03-28T04:25:19.585Z,97.18
2023-03-28T04:27:49.042Z,97.26
2023-03-28T04:30:20.468Z,97.53
2023-03-28T04:32:59.047Z,97.76
2023-03-28T04:35:29.846Z,97.90
2023-03-28T04:37:59.352Z,97.79
2023-03-28T04:40:29.465Z,97.83
2023-03-28T04:43:03.386Z,97.84
2023-03-28T04:45:34.408Z,98.22
2023-03-28T04:48:06.881Z,97.82
2023-03-28T04:50:36.226Z,98.11
2023-03-28T04:53:06.412Z,98.11
2023-03-28T04:55:37.808Z,98.19
2023-03-28T04:58:08.811Z,98.37
2023-03-28T05:00:39.392Z,98.51
2023-03-28T05:03:21.674Z,98.67
2023-03-28T05:05:54.054Z,98.69
2023-03-28T05:08:26.975Z,98.66
2023-03-28T05:10:56.386Z,98.68
2023-03-28T05:13:26.361Z,98.66
2023-03-28T05:16:00.580Z,98.96
2023-03-28T05:18:34.993Z,98.71
2023-03-28T05:21:05.153Z,98.80
2023-03-28T05:23:34.744Z,98.93
2023-03-28T05:26:07.210Z,98.82
2023-03-28T05:28:37.286Z,98.82
2023-03-28T05:31:08.631Z,98.71
2023-03-28T05:33:38.071Z,98.75
2023-03-28T05:36:08.080Z,98.67
2023-03-28T05:38:38.187Z,98.77
2023-03-28T05:41:09.909Z,98.77
2023-03-28T05:43:39.228Z,98.72
2023-03-28T05:46:09.342Z,98.54
2023-03-28T05:48:40.490Z,98.70
2023-03-28T05:51:09.863Z,98.47
2023-03-28T05:53:39.162Z,98.17
2023-03-28T05:56:11.398Z,97.77
2023-03-28T05:58:40.705Z,97.31
2023-03-28T06:01:11.875Z,97.16
2023-03-28T06:03:42.784Z,96.44
2023-03-28T06:06:12.347Z,96.15
2023-03-28T06:08:42.101Z,94.18
2023-03-28T06:11:12.743Z,93.65
2023-03-28T06:13:53.311Z,92.17
2023-03-28T06:16:30.512Z,89.43
2023-03-28T06:19:03.988Z,89.13
2023-03-28T06:21:26.046Z,88.83
2023-03-28T06:23:56.464Z,88.70
2023-03-28T06:26:27.586Z,89.17
2023-03-28T06:28:57.154Z,89.74
2023-03-28T06:31:34.857Z,90.37
2023-03-28T06:34:04.347Z,89.96
2023-03-28T06:36:34.767Z,88.01
2023-03-28T06:39:04.880Z,86.74
2023-03-28T06:41:34.974Z,84.15
2023-03-28T06:44:05.625Z,80.83
2023-03-28T06:46:39.894Z,78.93
2023-03-28T06:49:09.621Z,77.58
2023-03-28T06:51:40.957Z,76.74
2023-03-28T06:54:10.594Z,74.93
2023-03-28T06:56:40.083Z,74.27
2023-03-28T06:59:09.683Z,74.09
2023-03-28T07:01:39.841Z,72.00
2023-03-28T07:04:14.129Z,72.56
2023-03-28T07:06:44.787Z,71.11
2023-03-28T07:09:14.032Z,72.68
2023-03-28T07:11:45.256Z,72.59
2023-03-28T07:14:14.740Z,73.13
2023-03-28T07:16:44.899Z,72.25
2023-03-28T07:19:14.596Z,73.23
2023-03-28T07:21:45.832Z,73.78
2023-03-28T07:24:16.032Z,74.77
2023-03-28T07:26:52.002Z,74.83
2023-03-28T07:29:21.404Z,74.95
2023-03-28T07:31:51.379Z,71.88
2023-03-28T07:34:20.811Z,72.97
2023-03-28T07:36:50.600Z,73.13
2023-03-28T07:39:22.477Z,72.16
2023-03-28T07:41:53.097Z,71.27
2023-03-28T07:44:22.338Z,69.99
2023-03-28T07:46:52.909Z,67.64
2023-03-28T07:49:22.971Z,69.10
2023-03-28T07:51:52.797Z,67.75
2023-03-28T07:54:22.181Z,67.69
2023-03-28T07:56:52.161Z,68.68
2023-03-28T07:59:23.260Z,69.67
2023-03-28T08:01:54.673Z,68.68
2023-03-28T08:04:24.444Z,68.27
2023-03-28T08:06:58.565Z,67.58
2023-03-28T08:09:28.390Z,67.19
2023-03-28T08:12:02.521Z,66.76
2023-03-28T08:14:32.181Z,67.54
2023-03-28T08:17:02.059Z,66.56
2023-03-28T08:19:32.404Z,66.06
2023-03-28T08:22:16.639Z,66.76
2023-03-28T08:24:50.602Z,66.55
2023-03-28T08:27:24.785Z,66.79
2023-03-28T08:29:56.070Z,67.38
2023-03-28T08:32:27.008Z,66.92
2023-03-28T08:34:58.227Z,64.78
2023-03-28T08:37:28.253Z,65.74
2023-03-28T08:40:00.647Z,64.66
2023-03-28T08:42:50.116Z,64.78
2023-03-28T08:45:31.548Z,64.79
2023-03-28T08:48:13.231Z,64.21
2023-03-28T08:50:53.594Z,62.67
2023-03-28T08:53:30.496Z,61.22
2023-03-28T08:56:01.439Z,60.13
2023-03-28T08:58:34.686Z,59.79
2023-03-28T09:01:05.196Z,60.48
2023-03-28T09:03:34.906Z,60.50
2023-03-28T09:06:12.341Z,58.75
2023-03-28T09:08:54.180Z,59.26
2023-03-28T09:11:37.708Z,58.73
2023-03-28T09:14:26.749Z,59.79
2023-03-28T09:17:17.722Z,57.77
2023-03-28T09:20:14.508Z,57.75
2023-03-28T09:23:24.510Z,58.00
2023-03-28T09:26:01.634Z,58.72
2023-03-28T09:28:35.819Z,58.95
2023-03-28T09:31:09.392Z,58.63
2023-03-28T09:33:44.003Z,58.25
2023-03-28T09:36:18.571Z,58.88
2023-03-28T09:38:59.753Z,57.75
2023-03-28T09:41:45.391Z,56.60
2023-03-28T09:44:53.039Z,56.43
2023-03-28T09:47:29.745Z,58.22
2023-03-28T09:50:11.792Z,57.22
2023-03-28T09:52:32.733Z,56.48
2023-03-28T09:55:02.299Z,55.70
2023-03-28T09:57:51.926Z,56.21
2023-03-28T10:00:23.476Z,57.03
2023-03-28T10:02:55.753Z,54.55
2023-03-28T10:05:34.203Z,54.52
2023-03-28T10:08:08.546Z,54.44
2023-03-28T10:10:42.665Z,53.76
2023-03-28T10:13:14.166Z,53.21
2023-03-28T10:15:50.201Z,55.78
2023-03-28T10:18:31.682Z,53.16
2023-03-28T10:21:15.603Z,50.99
2023-03-28T10:23:52.876Z,51.56
2023-03-28T10:26:24.588Z,48.79
2023-03-28T10:28:54.961Z,47.80
2023-03-28T10:31:31.952Z,48.56
2023-03-28T10:34:03.654Z,46.89
2023-03-28T10:36:43.892Z,48.97
2023-03-28T10:39:32.605Z,50.83
2023-03-28T10:42:23.833Z,48.86
2023-03-28T10:45:04.205Z,48.21
2023-03-28T10:47:35.917Z,48.02
2023-03-28T10:50:08.156Z,45.21
2023-03-28T10:52:50.957Z,45.23
2023-03-28T10:55:25.241Z,43.22
2023-03-28T10:58:14.208Z,42.65
2023-03-28T11:00:57.338Z,43.65
2023-03-28T11:03:57.668Z,43.49
2023-03-28T11:06:46.804Z,43.64
2023-03-28T11:09:25.792Z,45.80
2023-03-28T11:14:21.808Z,42.75
2023-03-28T11:15:11.924Z,43.32
2023-03-28T11:17:55.248Z,41.99
2023-03-28T11:20:46.810Z,39.73
2023-03-28T11:23:42.223Z,41.80
2023-03-28T11:26:25.262Z,41.30
2023-03-28T11:29:17.446Z,41.55
2023-03-28T11:31:53.166Z,43.09
2023-03-28T11:34:25.701Z,43.20
2023-03-28T11:36:56.440Z,43.55
2023-03-28T11:39:51.483Z,42.48
2023-03-28T11:42:37.589Z,44.15
2023-03-28T11:45:09.544Z,44.71
2023-03-28T11:47:47.924Z,45.06
2023-03-28T11:50:27.349Z,45.06
2023-03-28T11:53:04.713Z,43.99
2023-03-28T11:55:47.679Z,44.00
2023-03-28T11:58:28.129Z,43.45
2023-03-28T12:01:07.025Z,43.66
2023-03-28T12:03:56.487Z,44.17
2023-03-28T12:06:29.114Z,45.62
2023-03-28T12:09:11.301Z,43.84
2023-03-28T12:11:48.024Z,43.51
2023-03-28T12:14:32.529Z,43.81
2023-03-28T12:17:06.307Z,42.97
2023-03-28T12:19:40.581Z,45.78
2023-03-28T12:22:19.574Z,42.32
2023-03-28T12:25:04.422Z,42.67
2023-03-28T12:27:56.277Z,44.55
2023-03-28T12:30:48.978Z,44.29
2023-03-28T12:33:23.068Z,44.57
2023-03-28T12:36:25.968Z,42.55
2023-03-28T12:39:19.868Z,44.99
2023-03-28T12:41:49.311Z,45.00
2023-03-28T12:44:23.038Z,46.23
2023-03-28T12:47:12.085Z,46.00
2023-03-28T12:49:45.808Z,46.42
2023-03-28T12:52:21.507Z,46.50
2023-03-28T12:55:02.288Z,46.80
2023-03-28T12:57:44.047Z,46.86
2023-03-28T13:00:45.066Z,45.68
2023-03-28T13:03:34.984Z,46.31
2023-03-28T13:06:13.593Z,45.67
2023-03-28T13:09:05.165Z,45.68
2023-03-28T13:11:58.981Z,45.55
2023-03-28T13:14:42.674Z,46.21
2023-03-28T13:17:21.804Z,46.59
2023-03-28T13:19:56.064Z,46.24
2023-03-28T13:22:56.377Z,47.65
2023-03-28T13:25:32.401Z,47.91
2023-03-28T13:28:22.088Z,49.39
2023-03-28T13:31:09.222Z,47.53
2023-03-28T13:33:44.368Z,48.88
2023-03-28T13:36:15.977Z,46.66
2023-03-28T13:39:09.474Z,48.68
2023-03-28T13:41:48.759Z,49.03
2023-03-28T13:44:29.814Z,49.46
2023-03-28T13:46:59.412Z,49.79
2023-03-28T13:49:36.316Z,50.71
2023-03-28T13:52:17.581Z,50.31
2023-03-28T13:54:48.515Z,51.82
2023-03-28T13:57:20.820Z,52.37
2023-03-28T14:00:01.722Z,51.45
2023-03-28T14:02:38.312Z,51.27
2023-03-28T14:05:22.831Z,52.08
2023-03-28T14:07:54.263Z,51.40
2023-03-28T14:10:28.979Z,51.97
2023-03-28T14:13:01.584Z,52.48
2023-03-28T14:15:31.123Z,52.99
2023-03-28T14:18:01.428Z,54.41
2023-03-28T14:20:31.531Z,53.04
2023-03-28T14:23:01.807Z,53.08
2023-03-28T14:25:32.182Z,53.68
2023-03-28T14:28:08.433Z,52.70
2023-03-28T14:30:42.393Z,53.46
2023-03-28T14:33:16.850Z,53.48
2023-03-28T14:35:47.855Z,53.57
2023-03-28T14:38:20.654Z,54.57
2023-03-28T14:40:50.048Z,54.81
2023-03-28T14:43:31.213Z,56.39
2023-03-28T14:46:03.564Z,55.19
2023-03-28T14:48:33.410Z,54.85
2023-03-28T14:51:04.174Z,56.26
2023-03-28T14:53:39.127Z,55.38
2023-03-28T14:56:12.805Z,55.62
2023-03-28T14:58:44.505Z,56.30
2023-03-28T15:01:18.490Z,56.19
2023-03-28T15:03:51.645Z,57.63
2023-03-28T15:06:23.353Z,57.51
2023-03-28T15:08:55.067Z,57.44
2023-03-28T15:11:29.150Z,56.37
2023-03-28T15:14:10.281Z,56.14
2023-03-28T15:16:45.421Z,56.13
2023-03-28T15:19:23.567Z,57.56
2023-03-28T15:22:06.535Z,56.63
2023-03-28T15:24:37.756Z,56.53
2023-03-28T15:27:09.803Z,57.22
2023-03-28T15:29:40.472Z,58.65
2023-03-28T15:32:15.833Z,56.74
2023-03-28T15:34:57.685Z,57.35
2023-03-28T15:37:27.819Z,57.28
2023-03-28T15:40:00.379Z,57.74
2023-03-28T15:42:31.044Z,59.03
2023-03-28T15:45:03.942Z,58.33
2023-03-28T15:47:35.449Z,58.21
2023-03-28T15:50:11.562Z,58.76
2023-03-28T15:52:43.249Z,58.15
2023-03-28T15:55:15.892Z,58.17
2023-03-28T15:57:45.875Z,58.14
2023-03-28T16:00:37.796Z,58.21
2023-03-28T16:03:22.719Z,59.50
2023-03-28T16:06:23.044Z,62.47
2023-03-28T16:08:47.354Z,63.46
2023-03-28T16:11:23.091Z,64.12
2023-03-28T16:13:57.541Z,65.11
2023-03-28T16:16:30.654Z,65.98
2023-03-28T16:19:07.994Z,66.49
2023-03-28T16:21:37.786Z,66.58
2023-03-28T16:24:08.006Z,65.99
2023-03-28T16:26:37.332Z,66.40
2023-03-28T16:29:06.911Z,66.25
2023-03-28T16:31:36.354Z,65.91
2023-03-28T16:34:09.256Z,65.92
2023-03-28T16:36:37.056Z,66.42
2023-03-28T16:39:08.359Z,66.96
2023-03-28T16:41:38.082Z,68.72
2023-03-28T16:44:07.628Z,69.17
2023-03-28T16:46:37.213Z,71.47
2023-03-28T16:49:07.493Z,72.93
2023-03-28T16:51:37.374Z,73.58
2023-03-28T16:54:06.746Z,75.68
2023-03-28T16:56:36.544Z,73.71
2023-03-28T16:59:08.490Z,73.39
2023-03-28T17:01:39.202Z,72.51
2023-03-28T17:04:08.517Z,71.86
2023-03-28T17:06:38.201Z,72.64
2023-03-28T17:09:07.909Z,73.19
2023-03-28T17:11:37.528Z,74.37
2023-03-28T17:14:07.759Z,74.90
2023-03-28T17:16:38.874Z,76.65
2023-03-28T17:19:08.522Z,76.27
2023-03-28T17:21:38.434Z,77.89
2023-03-28T17:24:09.835Z,76.43
2023-03-28T17:26:39.274Z,76.31
2023-03-28T17:29:09.981Z,76.67
2023-03-28T17:31:39.835Z,78.44
2023-03-28T17:34:09.755Z,76.83
2023-03-28T17:36:41.142Z,77.86
2023-03-28T17:39:11.907Z,78.79
2023-03-28T17:41:41.896Z,80.17
2023-03-28T17:44:11.281Z,80.64
2023-03-28T17:46:41.421Z,80.71
2023-03-28T17:49:10.986Z,80.71
2023-03-28T17:51:41.112Z,81.83
2023-03-28T17:54:12.322Z,82.06
2023-03-28T17:56:41.901Z,81.29
2023-03-28T17:59:12.335Z,80.36
2023-03-28T18:01:41.774Z,81.29
2023-03-28T18:04:11.585Z,79.84
2023-03-28T18:06:49.114Z,78.81
2023-03-28T18:09:18.443Z,78.85
2023-03-28T18:11:49.239Z,80.17
2023-03-28T18:14:18.945Z,81.02
2023-03-28T18:16:48.948Z,81.61
2023-03-28T18:19:20.142Z,79.60
2023-03-28T18:21:49.885Z,78.71
2023-03-28T18:24:20.563Z,79.72
2023-03-28T18:26:50.298Z,82.04
2023-03-28T18:29:20.168Z,80.46
2023-03-28T18:31:50.195Z,83.56
2023-03-28T18:34:20.539Z,82.39
2023-03-28T18:36:51.410Z,83.54
2023-03-28T18:39:23.038Z,83.60
2023-03-28T18:41:52.381Z,82.03
2023-03-28T18:44:21.671Z,82.49
2023-03-28T18:46:53.203Z,82.50
2023-03-28T18:49:23.162Z,83.39
2023-03-28T18:51:52.774Z,82.99
2023-03-28T18:54:22.829Z,83.18
2023-03-28T18:56:52.843Z,84.21
2023-03-28T18:59:23.258Z,83.66
2023-03-28T19:01:53.917Z,84.32
2023-03-28T19:04:26.189Z,83.68
2023-03-28T19:06:56.617Z,83.61
2023-03-28T19:09:26.503Z,85.04
2023-03-28T19:11:56.267Z,85.09
2023-03-28T19:14:25.589Z,84.83
2023-03-28T19:16:55.236Z,85.63
2023-03-28T19:19:25.377Z,85.28
2023-03-28T19:21:55.793Z,85.29
2023-03-28T19:24:25.084Z,86.17
2023-03-28T19:26:55.078Z,85.83
2023-03-28T19:29:25.067Z,85.96
2023-03-28T19:31:54.847Z,85.92
2023-03-28T19:34:24.287Z,86.51
2023-03-28T19:36:53.814Z,86.03
2023-03-28T19:39:23.521Z,86.13
2023-03-28T19:41:54.225Z,86.43
2023-03-28T19:44:23.814Z,87.22
2023-03-28T19:46:53.445Z,86.86
2023-03-28T19:49:22.850Z,86.83
2023-03-28T19:51:54.651Z,87.39
2023-03-28T19:54:25.820Z,87.37
2023-03-28T19:56:55.563Z,87.56
2023-03-28T19:59:25.248Z,87.12
2023-03-28T20:01:55.035Z,87.61
2023-03-28T20:04:24.527Z,87.67
2023-03-28T20:06:53.988Z,87.66
2023-03-28T20:09:24.359Z,86.78
2023-03-28T20:11:54.163Z,87.23
2023-03-28T20:14:23.631Z,86.62
2023-03-28T20:16:53.351Z,86.41
2023-03-28T20:19:25.947Z,86.14
2023-03-28T20:21:55.614Z,86.26
2023-03-28T20:24:25.212Z,86.27
2023-03-28T20:26:54.546Z,86.75
2023-03-28T20:29:24.852Z,86.39
2023-03-28T20:31:54.740Z,87.10
2023-03-28T20:34:24.360Z,86.75
2023-03-28T20:36:55.427Z,86.95
2023-03-28T20:39:26.438Z,87.04
2023-03-28T20:41:56.221Z,87.20
2023-03-28T20:44:27.576Z,87.49
2023-03-28T20:46:57.557Z,87.51
2023-03-28T20:49:27.531Z,87.44
2023-03-28T20:51:57.520Z,87.36
2023-03-28T20:54:27.948Z,87.75
2023-03-28T20:56:57.498Z,87.79
2023-03-28T20:59:28.301Z,87.68
2023-03-28T21:01:58.034Z,87.73
2023-03-28T21:04:28.640Z,87.75
2023-03-28T21:06:58.236Z,87.85
2023-03-28T21:09:27.673Z,87.75
2023-03-28T21:11:57.129Z,87.19
2023-03-28T21:14:26.505Z,87.36
2023-03-28T21:16:57.528Z,87.69
2023-03-28T21:19:27.059Z,87.17
2023-03-28T21:21:57.084Z,87.36
2023-03-28T21:24:38.287Z,87.51
2023-03-28T21:27:16.624Z,87.39
2023-03-28T21:29:48.640Z,87.38
2023-03-28T21:32:19.514Z,86.88
2023-03-28T21:37:34.805Z,87.11
2023-03-28T21:40:07.939Z,87.04
2023-03-28T21:42:54.279Z,87.05
2023-03-28T21:45:24.114Z,86.92
2023-03-28T21:47:54.052Z,86.57
2023-03-28T21:50:23.553Z,86.76
2023-03-28T21:52:53.252Z,86.99
2023-03-28T21:55:22.626Z,86.68
2023-03-28T21:57:52.002Z,86.88
2023-03-28T22:00:24.285Z,86.53
2023-03-28T22:02:54.612Z,87.31
2023-03-28T22:05:29.839Z,86.95
2023-03-28T22:07:55.808Z,86.15
2023-03-28T22:10:29.436Z,86.14
2023-03-28T22:12:59.018Z,86.11
2023-03-28T22:15:29.007Z,86.00
2023-03-28T22:17:59.012Z,85.99
2023-03-28T22:20:29.664Z,86.15
2023-03-28T22:23:00.619Z,86.40
2023-03-28T22:25:31.733Z,85.76
2023-03-28T22:28:01.768Z,86.00
2023-03-28T22:30:32.113Z,86.04
2023-03-28T22:33:02.547Z,85.80
2023-03-28T22:35:33.685Z,85.56
2023-03-28T22:38:04.301Z,85.55
2023-03-28T22:40:34.026Z,85.77
2023-03-28T22:43:03.388Z,85.57
2023-03-28T22:45:33.177Z,84.82
2023-03-28T22:48:03.409Z,85.08
2023-03-28T22:50:34.022Z,84.59
2023-03-28T22:53:04.435Z,84.71
2023-03-28T22:55:33.894Z,84.61
2023-03-28T22:58:03.958Z,84.61
2023-03-28T23:00:33.521Z,84.65
2023-03-28T23:03:03.103Z,84.37
2023-03-28T23:05:32.864Z,84.87
2023-03-28T23:08:02.242Z,84.74
2023-03-28T23:10:32.268Z,85.46
2023-03-28T23:13:01.540Z,85.37
2023-03-28T23:15:31.076Z,85.79
2023-03-28T23:18:00.420Z,85.78
2023-03-28T23:20:30.014Z,85.63
2023-03-28T23:22:59.310Z,85.69
2023-03-28T23:25:28.831Z,85.72
2023-03-28T23:27:58.657Z,85.72
2023-03-28T23:30:27.937Z,86.01
2023-03-28T23:32:57.505Z,85.06
2023-03-28T23:35:27.004Z,84.82
2023-03-28T23:37:56.661Z,84.45
2023-03-28T23:40:26.253Z,84.68
2023-03-28T23:42:55.581Z,84.30
2023-03-28T23:45:24.881Z,83.90
2023-03-28T23:47:54.221Z,83.56
2023-03-28T23:50:23.503Z,82.68
2023-03-28T23:52:53.718Z,82.61
2023-03-28T23:55:23.350Z,82.85
2023-03-28T23:57:54.540Z,82.72
